sensor_id;sensor_type;location;lat;lon;timestamp;P1;durP1;ratioP1;P2;durP2;ratioP2
38238;SDS011;24035;48.900;9.188;2023-02-05T00:02:14;12.40;;;3.35;;
38238;SDS011;24035;48.900;9.188;2023-02-05T00:04:40;13.52;;;3.50;;
38238;SDS011;24035;48.900;9.188;2023-02-05T00:07:06;7.28;;;2.92;;
38238;SDS011;24035;48.900;9.188;2023-02-05T00:09:32;8.45;;;3.35;;
38238;SDS011;24035;48.900;9.188;2023-02-05T00:11:58;8.20;;;2.95;;
38238;SDS011;24035;48.900;9.188;2023-02-05T00:14:24;12.38;;;3.58;;
38238;SDS011;24035;48.900;9.188;2023-02-05T00:16:50;7.00;;;3.30;;
38238;SDS011;24035;48.900;9.188;2023-02-05T00:19:16;8.63;;;3.30;;
38238;SDS011;24035;48.900;9.188;2023-02-05T00:21:42;9.50;;;3.38;;
38238;SDS011;24035;48.900;9.188;2023-02-05T00:24:08;11.70;;;3.88;;
38238;SDS011;24035;48.900;9.188;2023-02-05T00:26:35;10.13;;;4.28;;
38238;SDS011;24035;48.900;9.188;2023-02-05T00:29:01;10.25;;;3.17;;
38238;SDS011;24035;48.900;9.188;2023-02-05T00:31:27;7.20;;;3.05;;
38238;SDS011;24035;48.900;9.188;2023-02-05T00:33:52;8.48;;;3.13;;
38238;SDS011;24035;48.900;9.188;2023-02-05T00:36:19;8.93;;;2.83;;
38238;SDS011;24035;48.900;9.188;2023-02-05T00:38:45;5.82;;;2.80;;
38238;SDS011;24035;48.900;9.188;2023-02-05T00:41:12;9.65;;;3.65;;
38238;SDS011;24035;48.900;9.188;2023-02-05T00:43:39;8.73;;;3.08;;
38238;SDS011;24035;48.900;9.188;2023-02-05T00:46:05;6.20;;;2.85;;
38238;SDS011;24035;48.900;9.188;2023-02-05T00:48:31;11.18;;;3.25;;
38238;SDS011;24035;48.900;9.188;2023-02-05T00:50:57;7.88;;;2.85;;
38238;SDS011;24035;48.900;9.188;2023-02-05T00:53:23;6.53;;;2.90;;
38238;SDS011;24035;48.900;9.188;2023-02-05T00:55:49;7.65;;;3.08;;
38238;SDS011;24035;48.900;9.188;2023-02-05T00:58:15;7.97;;;2.60;;
38238;SDS011;24035;48.900;9.188;2023-02-05T01:00:41;7.38;;;3.00;;
38238;SDS011;24035;48.900;9.188;2023-02-05T01:03:08;7.68;;;2.55;;
38238;SDS011;24035;48.900;9.188;2023-02-05T01:05:34;7.32;;;2.90;;
38238;SDS011;24035;48.900;9.188;2023-02-05T01:08:01;7.15;;;2.60;;
38238;SDS011;24035;48.900;9.188;2023-02-05T01:10:27;7.80;;;2.85;;
38238;SDS011;24035;48.900;9.188;2023-02-05T01:12:53;7.50;;;2.67;;
38238;SDS011;24035;48.900;9.188;2023-02-05T01:15:18;9.50;;;3.78;;
38238;SDS011;24035;48.900;9.188;2023-02-05T01:17:44;11.02;;;2.90;;
38238;SDS011;24035;48.900;9.188;2023-02-05T01:20:11;7.68;;;2.85;;
38238;SDS011;24035;48.900;9.188;2023-02-05T01:22:38;6.20;;;2.58;;
38238;SDS011;24035;48.900;9.188;2023-02-05T01:25:04;8.65;;;2.90;;
38238;SDS011;24035;48.900;9.188;2023-02-05T01:27:33;8.63;;;2.75;;
38238;SDS011;24035;48.900;9.188;2023-02-05T01:29:59;6.70;;;2.75;;
38238;SDS011;24035;48.900;9.188;2023-02-05T01:32:26;8.25;;;2.88;;
38238;SDS011;24035;48.900;9.188;2023-02-05T01:34:53;6.30;;;2.55;;
38238;SDS011;24035;48.900;9.188;2023-02-05T01:37:18;9.60;;;2.58;;
38238;SDS011;24035;48.900;9.188;2023-02-05T01:39:44;8.07;;;2.75;;
38238;SDS011;24035;48.900;9.188;2023-02-05T01:42:17;8.85;;;2.72;;
38238;SDS011;24035;48.900;9.188;2023-02-05T01:47:45;6.13;;;3.00;;
38238;SDS011;24035;48.900;9.188;2023-02-05T01:50:12;8.60;;;2.80;;
38238;SDS011;24035;48.900;9.188;2023-02-05T01:52:39;6.72;;;2.90;;
38238;SDS011;24035;48.900;9.188;2023-02-05T01:55:05;6.32;;;2.50;;
38238;SDS011;24035;48.900;9.188;2023-02-05T01:57:32;7.70;;;2.90;;
38238;SDS011;24035;48.900;9.188;2023-02-05T02:00:00;5.80;;;2.03;;
38238;SDS011;24035;48.900;9.188;2023-02-05T02:02:26;7.15;;;3.20;;
38238;SDS011;24035;48.900;9.188;2023-02-05T02:04:55;9.57;;;3.08;;
38238;SDS011;24035;48.900;9.188;2023-02-05T02:07:24;9.30;;;3.35;;
38238;SDS011;24035;48.900;9.188;2023-02-05T02:09:50;9.20;;;2.72;;
38238;SDS011;24035;48.900;9.188;2023-02-05T02:12:22;7.80;;;2.80;;
38238;SDS011;24035;48.900;9.188;2023-02-05T02:14:54;9.63;;;2.88;;
38238;SDS011;24035;48.900;9.188;2023-02-05T02:17:23;7.55;;;3.17;;
38238;SDS011;24035;48.900;9.188;2023-02-05T02:19:59;7.53;;;2.63;;
38238;SDS011;24035;48.900;9.188;2023-02-05T02:38:08;6.95;;;2.67;;
38238;SDS011;24035;48.900;9.188;2023-02-05T02:40:41;10.45;;;3.03;;
38238;SDS011;24035;48.900;9.188;2023-02-05T02:43:13;7.28;;;3.00;;
38238;SDS011;24035;48.900;9.188;2023-02-05T02:45:45;7.15;;;2.63;;
38238;SDS011;24035;48.900;9.188;2023-02-05T02:48:16;6.40;;;2.83;;
38238;SDS011;24035;48.900;9.188;2023-02-05T02:50:46;5.07;;;2.55;;
38238;SDS011;24035;48.900;9.188;2023-02-05T02:53:16;5.60;;;2.45;;
38238;SDS011;24035;48.900;9.188;2023-02-05T02:55:45;6.22;;;2.72;;
38238;SDS011;24035;48.900;9.188;2023-02-05T02:58:18;7.85;;;2.63;;
38238;SDS011;24035;48.900;9.188;2023-02-05T03:00:49;7.43;;;3.00;;
38238;SDS011;24035;48.900;9.188;2023-02-05T03:03:17;5.78;;;2.60;;
38238;SDS011;24035;48.900;9.188;2023-02-05T03:05:46;8.05;;;2.95;;
38238;SDS011;24035;48.900;9.188;2023-02-05T03:08:21;5.00;;;2.13;;
38238;SDS011;24035;48.900;9.188;2023-02-05T03:11:09;5.15;;;2.63;;
38238;SDS011;24035;48.900;9.188;2023-02-05T03:13:38;7.13;;;2.53;;
38238;SDS011;24035;48.900;9.188;2023-02-05T03:16:04;8.52;;;3.33;;
38238;SDS011;24035;48.900;9.188;2023-02-05T03:18:30;6.40;;;3.03;;
38238;SDS011;24035;48.900;9.188;2023-02-05T03:21:01;7.63;;;2.83;;
38238;SDS011;24035;48.900;9.188;2023-02-05T03:25:56;10.68;;;3.40;;
38238;SDS011;24035;48.900;9.188;2023-02-05T03:28:21;9.10;;;2.92;;
38238;SDS011;24035;48.900;9.188;2023-02-05T03:33:41;8.15;;;3.38;;
38238;SDS011;24035;48.900;9.188;2023-02-05T03:41:37;7.50;;;2.75;;
38238;SDS011;24035;48.900;9.188;2023-02-05T03:53:27;6.97;;;2.45;;
38238;SDS011;24035;48.900;9.188;2023-02-05T03:56:16;8.70;;;3.05;;
38238;SDS011;24035;48.900;9.188;2023-02-05T03:58:48;7.53;;;2.83;;
38238;SDS011;24035;48.900;9.188;2023-02-05T04:01:18;9.75;;;2.92;;
38238;SDS011;24035;48.900;9.188;2023-02-05T04:03:44;10.52;;;3.15;;
38238;SDS011;24035;48.900;9.188;2023-02-05T04:06:10;9.55;;;3.30;;
38238;SDS011;24035;48.900;9.188;2023-02-05T04:08:36;8.82;;;2.38;;
38238;SDS011;24035;48.900;9.188;2023-02-05T04:11:01;7.85;;;2.83;;
38238;SDS011;24035;48.900;9.188;2023-02-05T04:13:27;7.95;;;3.22;;
38238;SDS011;24035;48.900;9.188;2023-02-05T04:15:53;7.25;;;3.00;;
38238;SDS011;24035;48.900;9.188;2023-02-05T04:18:18;8.32;;;3.30;;
38238;SDS011;24035;48.900;9.188;2023-02-05T04:20:44;8.98;;;3.30;;
38238;SDS011;24035;48.900;9.188;2023-02-05T04:23:10;6.35;;;2.67;;
38238;SDS011;24035;48.900;9.188;2023-02-05T04:25:36;7.00;;;2.75;;
38238;SDS011;24035;48.900;9.188;2023-02-05T04:28:03;8.25;;;3.38;;
38238;SDS011;24035;48.900;9.188;2023-02-05T04:30:29;6.57;;;2.67;;
38238;SDS011;24035;48.900;9.188;2023-02-05T04:32:56;6.95;;;2.70;;
38238;SDS011;24035;48.900;9.188;2023-02-05T04:35:22;7.70;;;2.80;;
38238;SDS011;24035;48.900;9.188;2023-02-05T04:37:47;6.10;;;3.10;;
38238;SDS011;24035;48.900;9.188;2023-02-05T04:40:13;6.57;;;2.70;;
38238;SDS011;24035;48.900;9.188;2023-02-05T04:42:38;6.53;;;2.85;;
38238;SDS011;24035;48.900;9.188;2023-02-05T04:45:04;9.00;;;2.92;;
38238;SDS011;24035;48.900;9.188;2023-02-05T04:47:30;6.85;;;2.42;;
38238;SDS011;24035;48.900;9.188;2023-02-05T04:49:56;7.88;;;3.00;;
38238;SDS011;24035;48.900;9.188;2023-02-05T04:52:22;6.28;;;2.55;;
38238;SDS011;24035;48.900;9.188;2023-02-05T04:54:48;8.70;;;2.70;;
38238;SDS011;24035;48.900;9.188;2023-02-05T04:57:13;6.10;;;2.17;;
38238;SDS011;24035;48.900;9.188;2023-02-05T04:59:39;8.07;;;2.70;;
38238;SDS011;24035;48.900;9.188;2023-02-05T05:02:05;9.07;;;2.78;;
38238;SDS011;24035;48.900;9.188;2023-02-05T05:04:30;5.18;;;2.40;;
38238;SDS011;24035;48.900;9.188;2023-02-05T05:06:56;5.85;;;1.98;;
38238;SDS011;24035;48.900;9.188;2023-02-05T05:09:22;7.82;;;2.88;;
38238;SDS011;24035;48.900;9.188;2023-02-05T05:11:52;6.47;;;2.28;;
38238;SDS011;24035;48.900;9.188;2023-02-05T05:14:18;5.18;;;2.35;;
38238;SDS011;24035;48.900;9.188;2023-02-05T05:16:44;5.93;;;2.63;;
38238;SDS011;24035;48.900;9.188;2023-02-05T05:19:10;7.05;;;2.40;;
38238;SDS011;24035;48.900;9.188;2023-02-05T05:21:35;10.20;;;2.92;;
38238;SDS011;24035;48.900;9.188;2023-02-05T05:24:01;6.00;;;2.25;;
38238;SDS011;24035;48.900;9.188;2023-02-05T05:26:27;7.15;;;2.20;;
38238;SDS011;24035;48.900;9.188;2023-02-05T05:28:53;6.25;;;2.78;;
38238;SDS011;24035;48.900;9.188;2023-02-05T05:31:19;7.68;;;2.38;;
38238;SDS011;24035;48.900;9.188;2023-02-05T05:33:45;7.25;;;2.20;;
38238;SDS011;24035;48.900;9.188;2023-02-05T05:36:11;8.15;;;2.53;;
38238;SDS011;24035;48.900;9.188;2023-02-05T05:38:37;6.57;;;2.22;;
38238;SDS011;24035;48.900;9.188;2023-02-05T05:41:03;5.63;;;2.20;;
38238;SDS011;24035;48.900;9.188;2023-02-05T05:43:47;6.68;;;2.35;;
38238;SDS011;24035;48.900;9.188;2023-02-05T05:46:15;5.20;;;2.33;;
38238;SDS011;24035;48.900;9.188;2023-02-05T05:48:49;6.68;;;2.50;;
38238;SDS011;24035;48.900;9.188;2023-02-05T05:51:16;5.53;;;2.67;;
38238;SDS011;24035;48.900;9.188;2023-02-05T05:53:42;6.35;;;2.53;;
38238;SDS011;24035;48.900;9.188;2023-02-05T05:56:09;6.20;;;2.30;;
38238;SDS011;24035;48.900;9.188;2023-02-05T05:58:34;5.57;;;2.78;;
38238;SDS011;24035;48.900;9.188;2023-02-05T06:01:00;7.38;;;2.35;;
38238;SDS011;24035;48.900;9.188;2023-02-05T06:03:26;10.00;;;2.25;;
38238;SDS011;24035;48.900;9.188;2023-02-05T06:05:52;5.97;;;2.58;;
38238;SDS011;24035;48.900;9.188;2023-02-05T06:08:17;6.82;;;2.72;;
38238;SDS011;24035;48.900;9.188;2023-02-05T06:10:43;7.70;;;2.67;;
38238;SDS011;24035;48.900;9.188;2023-02-05T06:13:08;5.47;;;2.38;;
38238;SDS011;24035;48.900;9.188;2023-02-05T06:15:34;6.80;;;2.95;;
38238;SDS011;24035;48.900;9.188;2023-02-05T06:18:00;11.27;;;3.22;;
38238;SDS011;24035;48.900;9.188;2023-02-05T06:20:26;7.00;;;2.95;;
38238;SDS011;24035;48.900;9.188;2023-02-05T06:22:51;7.78;;;2.97;;
38238;SDS011;24035;48.900;9.188;2023-02-05T06:25:17;6.95;;;2.95;;
38238;SDS011;24035;48.900;9.188;2023-02-05T06:27:43;14.13;;;3.58;;
38238;SDS011;24035;48.900;9.188;2023-02-05T06:30:09;10.52;;;3.67;;
38238;SDS011;24035;48.900;9.188;2023-02-05T06:32:35;8.98;;;2.83;;
38238;SDS011;24035;48.900;9.188;2023-02-05T06:35:01;7.57;;;3.25;;
38238;SDS011;24035;48.900;9.188;2023-02-05T06:37:26;7.18;;;2.78;;
38238;SDS011;24035;48.900;9.188;2023-02-05T06:39:55;8.13;;;3.15;;
38238;SDS011;24035;48.900;9.188;2023-02-05T06:42:21;7.03;;;2.78;;
38238;SDS011;24035;48.900;9.188;2023-02-05T06:44:47;8.18;;;3.25;;
38238;SDS011;24035;48.900;9.188;2023-02-05T06:47:12;9.35;;;3.45;;
38238;SDS011;24035;48.900;9.188;2023-02-05T06:49:38;7.93;;;3.00;;
38238;SDS011;24035;48.900;9.188;2023-02-05T06:52:04;8.73;;;2.97;;
38238;SDS011;24035;48.900;9.188;2023-02-05T06:54:30;10.25;;;2.92;;
38238;SDS011;24035;48.900;9.188;2023-02-05T06:56:56;6.55;;;2.88;;
38238;SDS011;24035;48.900;9.188;2023-02-05T06:59:22;6.28;;;2.78;;
38238;SDS011;24035;48.900;9.188;2023-02-05T07:01:48;9.18;;;2.70;;
38238;SDS011;24035;48.900;9.188;2023-02-05T07:04:13;5.95;;;2.65;;
38238;SDS011;24035;48.900;9.188;2023-02-05T07:06:39;8.35;;;2.70;;
38238;SDS011;24035;48.900;9.188;2023-02-05T07:09:05;8.32;;;2.60;;
38238;SDS011;24035;48.900;9.188;2023-02-05T07:11:30;8.82;;;2.83;;
38238;SDS011;24035;48.900;9.188;2023-02-05T07:13:58;6.63;;;2.70;;
38238;SDS011;24035;48.900;9.188;2023-02-05T07:16:25;9.77;;;3.20;;
38238;SDS011;24035;48.900;9.188;2023-02-05T07:18:50;10.20;;;3.08;;
38238;SDS011;24035;48.900;9.188;2023-02-05T07:21:17;9.40;;;3.05;;
38238;SDS011;24035;48.900;9.188;2023-02-05T07:23:43;8.32;;;2.95;;
38238;SDS011;24035;48.900;9.188;2023-02-05T07:26:09;7.10;;;2.90;;
38238;SDS011;24035;48.900;9.188;2023-02-05T07:28:37;6.75;;;2.67;;
38238;SDS011;24035;48.900;9.188;2023-02-05T07:31:10;11.05;;;3.38;;
38238;SDS011;24035;48.900;9.188;2023-02-05T07:33:44;6.88;;;2.88;;
38238;SDS011;24035;48.900;9.188;2023-02-05T07:36:12;9.70;;;2.85;;
38238;SDS011;24035;48.900;9.188;2023-02-05T07:38:42;8.15;;;3.28;;
38238;SDS011;24035;48.900;9.188;2023-02-05T07:41:10;10.68;;;3.17;;
38238;SDS011;24035;48.900;9.188;2023-02-05T07:43:37;11.13;;;3.33;;
38238;SDS011;24035;48.900;9.188;2023-02-05T07:46:04;6.88;;;2.60;;
38238;SDS011;24035;48.900;9.188;2023-02-05T07:48:32;9.85;;;3.55;;
38238;SDS011;24035;48.900;9.188;2023-02-05T07:50:58;10.38;;;2.80;;
38238;SDS011;24035;48.900;9.188;2023-02-05T07:53:24;9.63;;;3.03;;
38238;SDS011;24035;48.900;9.188;2023-02-05T07:55:50;6.22;;;2.90;;
38238;SDS011;24035;48.900;9.188;2023-02-05T07:58:16;8.10;;;3.08;;
38238;SDS011;24035;48.900;9.188;2023-02-05T08:00:42;7.63;;;3.13;;
38238;SDS011;24035;48.900;9.188;2023-02-05T08:03:07;10.80;;;2.70;;
38238;SDS011;24035;48.900;9.188;2023-02-05T08:05:33;10.38;;;2.70;;
38238;SDS011;24035;48.900;9.188;2023-02-05T08:08:01;8.43;;;3.05;;
38238;SDS011;24035;48.900;9.188;2023-02-05T08:10:26;11.35;;;3.15;;
38238;SDS011;24035;48.900;9.188;2023-02-05T08:12:52;8.25;;;2.88;;
38238;SDS011;24035;48.900;9.188;2023-02-05T08:15:18;9.48;;;3.45;;
38238;SDS011;24035;48.900;9.188;2023-02-05T08:17:44;9.82;;;2.78;;
38238;SDS011;24035;48.900;9.188;2023-02-05T08:20:10;10.32;;;3.72;;
38238;SDS011;24035;48.900;9.188;2023-02-05T08:22:37;7.22;;;2.90;;
38238;SDS011;24035;48.900;9.188;2023-02-05T08:25:05;10.98;;;2.90;;
38238;SDS011;24035;48.900;9.188;2023-02-05T08:27:34;6.95;;;3.08;;
38238;SDS011;24035;48.900;9.188;2023-02-05T08:30:02;11.23;;;3.10;;
38238;SDS011;24035;48.900;9.188;2023-02-05T08:32:28;7.07;;;2.70;;
38238;SDS011;24035;48.900;9.188;2023-02-05T08:34:54;6.85;;;2.58;;
38238;SDS011;24035;48.900;9.188;2023-02-05T08:37:20;7.85;;;2.30;;
38238;SDS011;24035;48.900;9.188;2023-02-05T08:39:45;7.22;;;3.30;;
38238;SDS011;24035;48.900;9.188;2023-02-05T08:42:11;7.75;;;2.92;;
38238;SDS011;24035;48.900;9.188;2023-02-05T08:44:37;7.72;;;2.60;;
38238;SDS011;24035;48.900;9.188;2023-02-05T08:47:02;7.45;;;2.80;;
38238;SDS011;24035;48.900;9.188;2023-02-05T08:49:28;16.02;;;3.70;;
38238;SDS011;24035;48.900;9.188;2023-02-05T08:51:54;6.18;;;2.53;;
38238;SDS011;24035;48.900;9.188;2023-02-05T08:54:19;9.70;;;3.00;;
38238;SDS011;24035;48.900;9.188;2023-02-05T08:56:47;7.45;;;3.20;;
38238;SDS011;24035;48.900;9.188;2023-02-05T08:59:14;7.97;;;3.30;;
38238;SDS011;24035;48.900;9.188;2023-02-05T09:01:40;9.38;;;4.22;;
38238;SDS011;24035;48.900;9.188;2023-02-05T09:04:07;7.05;;;2.58;;
38238;SDS011;24035;48.900;9.188;2023-02-05T09:06:36;5.93;;;3.13;;
38238;SDS011;24035;48.900;9.188;2023-02-05T09:09:02;6.97;;;2.35;;
38238;SDS011;24035;48.900;9.188;2023-02-05T09:11:28;5.22;;;2.67;;
38238;SDS011;24035;48.900;9.188;2023-02-05T09:13:55;5.82;;;2.55;;
38238;SDS011;24035;48.900;9.188;2023-02-05T09:16:21;8.93;;;3.05;;
38238;SDS011;24035;48.900;9.188;2023-02-05T09:18:47;10.52;;;3.47;;
38238;SDS011;24035;48.900;9.188;2023-02-05T09:21:12;9.10;;;3.05;;
38238;SDS011;24035;48.900;9.188;2023-02-05T09:23:38;7.78;;;3.33;;
38238;SDS011;24035;48.900;9.188;2023-02-05T09:26:04;10.32;;;3.25;;
38238;SDS011;24035;48.900;9.188;2023-02-05T09:28:31;10.63;;;2.53;;
38238;SDS011;24035;48.900;9.188;2023-02-05T09:30:57;7.22;;;2.40;;
38238;SDS011;24035;48.900;9.188;2023-02-05T09:33:22;8.13;;;3.20;;
38238;SDS011;24035;48.900;9.188;2023-02-05T09:35:48;8.48;;;3.33;;
38238;SDS011;24035;48.900;9.188;2023-02-05T09:38:14;10.00;;;3.25;;
38238;SDS011;24035;48.900;9.188;2023-02-05T09:40:43;7.43;;;2.90;;
38238;SDS011;24035;48.900;9.188;2023-02-05T09:43:20;11.18;;;3.00;;
38238;SDS011;24035;48.900;9.188;2023-02-05T09:45:55;8.15;;;3.47;;
38238;SDS011;24035;48.900;9.188;2023-02-05T09:48:47;9.00;;;3.15;;
38238;SDS011;24035;48.900;9.188;2023-02-05T09:51:31;6.65;;;3.05;;
38238;SDS011;24035;48.900;9.188;2023-02-05T09:54:16;6.30;;;2.47;;
38238;SDS011;24035;48.900;9.188;2023-02-05T09:56:42;7.85;;;3.47;;
38238;SDS011;24035;48.900;9.188;2023-02-05T09:59:13;8.85;;;3.65;;
38238;SDS011;24035;48.900;9.188;2023-02-05T10:04:07;9.27;;;3.45;;
38238;SDS011;24035;48.900;9.188;2023-02-05T10:33:43;9.35;;;3.40;;
38238;SDS011;24035;48.900;9.188;2023-02-05T10:36:32;9.82;;;3.25;;
38238;SDS011;24035;48.900;9.188;2023-02-05T10:38:58;8.35;;;3.38;;
38238;SDS011;24035;48.900;9.188;2023-02-05T10:41:38;9.45;;;3.60;;
38238;SDS011;24035;48.900;9.188;2023-02-05T10:46:45;7.88;;;3.47;;
38238;SDS011;24035;48.900;9.188;2023-02-05T10:49:17;6.82;;;3.08;;
38238;SDS011;24035;48.900;9.188;2023-02-05T10:51:52;6.90;;;2.97;;
38238;SDS011;24035;48.900;9.188;2023-02-05T10:56:47;7.07;;;3.85;;
38238;SDS011;24035;48.900;9.188;2023-02-05T10:59:35;9.80;;;3.53;;
38238;SDS011;24035;48.900;9.188;2023-02-05T11:02:01;8.43;;;3.40;;
38238;SDS011;24035;48.900;9.188;2023-02-05T11:06:58;8.85;;;3.42;;
38238;SDS011;24035;48.900;9.188;2023-02-05T11:09:30;9.68;;;3.60;;
38238;SDS011;24035;48.900;9.188;2023-02-05T11:12:05;12.00;;;3.95;;
38238;SDS011;24035;48.900;9.188;2023-02-05T11:14:55;9.93;;;4.63;;
38238;SDS011;24035;48.900;9.188;2023-02-05T11:17:34;9.80;;;3.67;;
38238;SDS011;24035;48.900;9.188;2023-02-05T11:20:04;9.40;;;4.45;;
38238;SDS011;24035;48.900;9.188;2023-02-05T11:22:45;14.77;;;4.40;;
38238;SDS011;24035;48.900;9.188;2023-02-05T11:27:50;9.50;;;3.63;;
38238;SDS011;24035;48.900;9.188;2023-02-05T11:30:23;9.40;;;3.70;;
38238;SDS011;24035;48.900;9.188;2023-02-05T11:32:53;12.82;;;4.00;;
38238;SDS011;24035;48.900;9.188;2023-02-05T11:40:34;8.40;;;3.08;;
38238;SDS011;24035;48.900;9.188;2023-02-05T11:45:30;8.02;;;3.28;;
38238;SDS011;24035;48.900;9.188;2023-02-05T11:47:58;7.35;;;3.42;;
38238;SDS011;24035;48.900;9.188;2023-02-05T11:50:27;10.25;;;3.92;;
38238;SDS011;24035;48.900;9.188;2023-02-05T11:52:57;11.27;;;4.10;;
38238;SDS011;24035;48.900;9.188;2023-02-05T11:55:32;11.98;;;4.68;;
38238;SDS011;24035;48.900;9.188;2023-02-05T11:58:19;9.88;;;4.00;;
38238;SDS011;24035;48.900;9.188;2023-02-05T12:00:56;9.05;;;3.35;;
38238;SDS011;24035;48.900;9.188;2023-02-05T12:03:30;12.38;;;3.67;;
38238;SDS011;24035;48.900;9.188;2023-02-05T12:06:08;10.05;;;3.60;;
38238;SDS011;24035;48.900;9.188;2023-02-05T12:08:49;10.35;;;3.53;;
38238;SDS011;24035;48.900;9.188;2023-02-05T12:16:41;7.40;;;3.53;;
38238;SDS011;24035;48.900;9.188;2023-02-05T12:19:31;8.43;;;4.38;;
38238;SDS011;24035;48.900;9.188;2023-02-05T12:22:09;13.35;;;3.80;;
38238;SDS011;24035;48.900;9.188;2023-02-05T12:35:41;9.48;;;3.85;;
38238;SDS011;24035;48.900;9.188;2023-02-05T12:38:24;10.43;;;3.55;;
38238;SDS011;24035;48.900;9.188;2023-02-05T12:43:40;7.60;;;3.50;;
38238;SDS011;24035;48.900;9.188;2023-02-05T12:46:28;10.18;;;4.55;;
38238;SDS011;24035;48.900;9.188;2023-02-05T12:49:09;9.10;;;3.58;;
38238;SDS011;24035;48.900;9.188;2023-02-05T12:54:50;5.57;;;3.45;;
38238;SDS011;24035;48.900;9.188;2023-02-05T12:57:30;10.20;;;3.10;;
38238;SDS011;24035;48.900;9.188;2023-02-05T13:00:03;9.13;;;3.92;;
38238;SDS011;24035;48.900;9.188;2023-02-05T13:05:33;8.10;;;3.25;;
38238;SDS011;24035;48.900;9.188;2023-02-05T13:10:49;7.82;;;3.70;;
38238;SDS011;24035;48.900;9.188;2023-02-05T13:13:49;11.32;;;4.40;;
38238;SDS011;24035;48.900;9.188;2023-02-05T13:16:34;9.20;;;4.10;;
38238;SDS011;24035;48.900;9.188;2023-02-05T13:19:51;9.48;;;3.53;;
38238;SDS011;24035;48.900;9.188;2023-02-05T13:21:55;7.45;;;3.63;;
38238;SDS011;24035;48.900;9.188;2023-02-05T13:27:53;9.55;;;4.78;;
38238;SDS011;24035;48.900;9.188;2023-02-05T13:30:48;11.18;;;4.15;;
38238;SDS011;24035;48.900;9.188;2023-02-05T13:33:19;7.90;;;3.88;;
38238;SDS011;24035;48.900;9.188;2023-02-05T13:35:56;12.82;;;4.75;;
38238;SDS011;24035;48.900;9.188;2023-02-05T13:41:56;8.35;;;3.58;;
38238;SDS011;24035;48.900;9.188;2023-02-05T13:47:14;8.00;;;3.35;;
38238;SDS011;24035;48.900;9.188;2023-02-05T14:00:57;6.07;;;2.63;;
38238;SDS011;24035;48.900;9.188;2023-02-05T14:03:28;7.07;;;2.57;;
38238;SDS011;24035;48.900;9.188;2023-02-05T14:06:10;6.45;;;1.92;;
38238;SDS011;24035;48.900;9.188;2023-02-05T14:08:38;4.90;;;1.65;;
38238;SDS011;24035;48.900;9.188;2023-02-05T14:11:04;4.15;;;1.73;;
38238;SDS011;24035;48.900;9.188;2023-02-05T14:13:32;7.22;;;2.40;;
38238;SDS011;24035;48.900;9.188;2023-02-05T14:18:55;4.22;;;1.42;;
38238;SDS011;24035;48.900;9.188;2023-02-05T14:24:28;3.40;;;1.30;;
38238;SDS011;24035;48.900;9.188;2023-02-05T14:27:19;4.32;;;1.70;;
38238;SDS011;24035;48.900;9.188;2023-02-05T14:29:54;4.38;;;1.63;;
38238;SDS011;24035;48.900;9.188;2023-02-05T14:37:42;5.40;;;1.73;;
38238;SDS011;24035;48.900;9.188;2023-02-05T14:42:47;4.10;;;1.50;;
38238;SDS011;24035;48.900;9.188;2023-02-05T14:45:14;4.80;;;1.70;;
38238;SDS011;24035;48.900;9.188;2023-02-05T14:47:41;3.97;;;1.42;;
38238;SDS011;24035;48.900;9.188;2023-02-05T14:50:16;5.13;;;1.50;;
38238;SDS011;24035;48.900;9.188;2023-02-05T14:52:49;4.60;;;1.67;;
38238;SDS011;24035;48.900;9.188;2023-02-05T14:55:19;4.20;;;1.67;;
38238;SDS011;24035;48.900;9.188;2023-02-05T14:57:57;3.13;;;1.30;;
38238;SDS011;24035;48.900;9.188;2023-02-05T15:00:35;5.40;;;1.55;;
38238;SDS011;24035;48.900;9.188;2023-02-05T15:05:34;3.40;;;1.10;;
38238;SDS011;24035;48.900;9.188;2023-02-05T15:08:08;4.97;;;2.08;;
38238;SDS011;24035;48.900;9.188;2023-02-05T15:10:46;6.13;;;2.28;;
38238;SDS011;24035;48.900;9.188;2023-02-05T15:13:29;6.20;;;2.40;;
38238;SDS011;24035;48.900;9.188;2023-02-05T15:18:49;5.15;;;1.92;;
38238;SDS011;24035;48.900;9.188;2023-02-05T15:21:18;4.15;;;1.92;;
38238;SDS011;24035;48.900;9.188;2023-02-05T15:23:47;5.10;;;2.10;;
38238;SDS011;24035;48.900;9.188;2023-02-05T15:26:28;3.38;;;1.50;;
38238;SDS011;24035;48.900;9.188;2023-02-05T15:31:41;4.05;;;1.77;;
38238;SDS011;24035;48.900;9.188;2023-02-05T15:37:22;3.83;;;1.55;;
38238;SDS011;24035;48.900;9.188;2023-02-05T15:40:00;4.32;;;1.85;;
38238;SDS011;24035;48.900;9.188;2023-02-05T15:42:37;5.13;;;2.25;;
38238;SDS011;24035;48.900;9.188;2023-02-05T15:45:23;6.03;;;1.83;;
38238;SDS011;24035;48.900;9.188;2023-02-05T15:48:35;4.40;;;1.85;;
38238;SDS011;24035;48.900;9.188;2023-02-05T15:50:44;5.32;;;1.95;;
38238;SDS011;24035;48.900;9.188;2023-02-05T15:53:35;6.90;;;2.10;;
38238;SDS011;24035;48.900;9.188;2023-02-05T15:58:48;4.18;;;1.77;;
38238;SDS011;24035;48.900;9.188;2023-02-05T16:01:27;3.67;;;1.75;;
38238;SDS011;24035;48.900;9.188;2023-02-05T16:03:58;5.70;;;2.42;;
38238;SDS011;24035;48.900;9.188;2023-02-05T16:06:25;6.47;;;2.33;;
38238;SDS011;24035;48.900;9.188;2023-02-05T16:08:52;4.05;;;1.90;;
38238;SDS011;24035;48.900;9.188;2023-02-05T16:11:31;5.40;;;2.15;;
38238;SDS011;24035;48.900;9.188;2023-02-05T16:14:03;3.80;;;1.48;;
38238;SDS011;24035;48.900;9.188;2023-02-05T16:16:29;3.85;;;1.73;;
38238;SDS011;24035;48.900;9.188;2023-02-05T16:18:57;4.88;;;1.52;;
38238;SDS011;24035;48.900;9.188;2023-02-05T16:21:34;4.78;;;1.90;;
38238;SDS011;24035;48.900;9.188;2023-02-05T16:24:06;4.38;;;1.40;;
38238;SDS011;24035;48.900;9.188;2023-02-05T16:26:52;4.30;;;2.00;;
38238;SDS011;24035;48.900;9.188;2023-02-05T16:29:29;4.15;;;1.73;;
38238;SDS011;24035;48.900;9.188;2023-02-05T16:32:05;5.25;;;1.70;;
38238;SDS011;24035;48.900;9.188;2023-02-05T16:34:34;5.88;;;2.25;;
38238;SDS011;24035;48.900;9.188;2023-02-05T16:37:04;3.63;;;1.65;;
38238;SDS011;24035;48.900;9.188;2023-02-05T16:39:37;6.72;;;2.55;;
38238;SDS011;24035;48.900;9.188;2023-02-05T16:42:29;5.60;;;2.22;;
38238;SDS011;24035;48.900;9.188;2023-02-05T16:47:34;4.43;;;2.35;;
38238;SDS011;24035;48.900;9.188;2023-02-05T16:50:01;6.38;;;2.47;;
38238;SDS011;24035;48.900;9.188;2023-02-05T16:52:58;6.03;;;2.78;;
38238;SDS011;24035;48.900;9.188;2023-02-05T16:57:50;5.70;;;2.10;;
38238;SDS011;24035;48.900;9.188;2023-02-05T17:02:42;4.18;;;2.00;;
38238;SDS011;24035;48.900;9.188;2023-02-05T17:07:56;4.40;;;2.42;;
38238;SDS011;24035;48.900;9.188;2023-02-05T17:10:25;8.45;;;4.35;;
38238;SDS011;24035;48.900;9.188;2023-02-05T17:12:56;5.30;;;2.67;;
38238;SDS011;24035;48.900;9.188;2023-02-05T17:15:34;7.20;;;2.95;;
38238;SDS011;24035;48.900;9.188;2023-02-05T17:18:17;6.82;;;2.72;;
38238;SDS011;24035;48.900;9.188;2023-02-05T17:20:45;8.52;;;2.97;;
38238;SDS011;24035;48.900;9.188;2023-02-05T17:23:14;6.43;;;3.22;;
38238;SDS011;24035;48.900;9.188;2023-02-05T17:25:54;7.13;;;3.25;;
38238;SDS011;24035;48.900;9.188;2023-02-05T17:28:20;6.03;;;2.95;;
38238;SDS011;24035;48.900;9.188;2023-02-05T17:30:49;6.20;;;3.38;;
38238;SDS011;24035;48.900;9.188;2023-02-05T17:33:17;5.45;;;2.67;;
38238;SDS011;24035;48.900;9.188;2023-02-05T17:35:45;6.82;;;3.20;;
38238;SDS011;24035;48.900;9.188;2023-02-05T17:38:10;8.13;;;3.55;;
38238;SDS011;24035;48.900;9.188;2023-02-05T17:40:36;11.98;;;5.78;;
38238;SDS011;24035;48.900;9.188;2023-02-05T17:43:02;7.50;;;3.15;;
38238;SDS011;24035;48.900;9.188;2023-02-05T17:45:31;4.68;;;2.67;;
38238;SDS011;24035;48.900;9.188;2023-02-05T17:47:59;4.70;;;2.30;;
38238;SDS011;24035;48.900;9.188;2023-02-05T17:50:24;6.70;;;2.58;;
38238;SDS011;24035;48.900;9.188;2023-02-05T17:52:50;5.70;;;3.20;;
38238;SDS011;24035;48.900;9.188;2023-02-05T17:55:17;8.80;;;3.25;;